Impacts METAR Board
IDs:

KMSP - Minneapolis-St Paul, MN, US

Updated at: 1000 UTC 22 Apr 2018
Potential Impact None Slight Moderate High
Time 21/22Z 21/23Z 22/00Z 22/01Z 22/02Z 22/03Z 22/04Z 22/05Z 22/06Z 22/07Z 22/08Z 22/09Z 22/10Z
Temp58 58 58 56 52 52 51 50 46 44 39 41 38
Dewpt15 15 17 25 29 34 33 33 33 33 33 32 32
Altim30.33 30.33 30.33 30.33 30.34 30.36 30.36 30.35 30.35 30.35 30.33 30.33 30.33
VIS10 10 10 10 10 10 10 10 10 10 10 10 10
CIG-- -- -- -- -- -- -- -- -- -- -- -- --
CoverFEWFEWFEWCLRCLRCLRCLRCLRCLRCLRCLRCLRCLR
FltCatVFRVFRVFRVFRVFRVFRVFRVFRVFRVFRVFRVFRVFR
WX--------------------------
WDir180002203002102101901500000
WSpd5 5 3 6 4 5 4 4 3 0 0 0 0
WGst-- -- -- -- -- -- -- -- -- -- -- -- --
Raw hourly METARs
KMSP 212153Z 18005KT 10SM FEW300 14/M09 A3033 RMK AO2 SLP275 T01441094
KMSP 212253Z VRB05KT 10SM FEW300 14/M09 A3033 RMK AO2 SLP274 T01441094
KMSP 212353Z VRB03KT 10SM FEW300 14/M08 A3033 RMK AO2 SLP274 T01441083 10156 20128 56006
KMSP 220053Z 22006KT 10SM CLR 13/M04 A3033 RMK AO2 SLP275 T01331039
KMSP 220153Z 30004KT 10SM CLR 11/M02 A3034 RMK AO2 SLP281 T01111017
KMSP 220253Z 21005KT 10SM CLR 11/01 A3036 RMK AO2 SLP285 T01110011 53012
KMSP 220353Z 21004KT 10SM CLR 11/01 A3036 RMK AO2 SLP284 T01060006
KMSP 220453Z 19004KT 10SM CLR 10/01 A3035 RMK AO2 SLP282 T01000006
KMSP 220553Z 15003KT 10SM CLR 08/01 A3035 RMK AO2 SLP280 T00780006 10144 20078 401560022 58004
KMSP 220653Z 00000KT 10SM CLR 07/01 A3035 RMK AO2 SLP281 T00670006
KMSP 220753Z 00000KT 10SM CLR 04/01 A3033 RMK AO2 SLP274 T00390006
KMSP 220853Z 00000KT 10SM CLR 05/00 A3033 RMK AO2 SLP273 T00500000 58007
KMSP 220953Z 00000KT 10SM CLR 03/00 A3033 RMK AO2 SLP274 T00330000



Page loaded:  10:51 UTC  |   03:51 AM Pacific  |   04:51 AM Mountain  |   05:51 AM Central  |   06:51 AM Eastern

 

ADVISORIES

FORECASTS

FORECASTS

OBSERVATIONS

USER TOOLS

ABOUT US